sensor_id;sensor_type;location;lat;lon;timestamp;temperature;humidity
13711;DHT22;6927;51.256;9.410;2023-08-01T00:00:59;15.80;99.90
13711;DHT22;6927;51.256;9.410;2023-08-01T00:03:25;15.70;99.90
13711;DHT22;6927;51.256;9.410;2023-08-01T00:05:51;15.80;99.90
13711;DHT22;6927;51.256;9.410;2023-08-01T00:08:20;15.80;99.90
13711;DHT22;6927;51.256;9.410;2023-08-01T00:10:46;15.80;99.90
13711;DHT22;6927;51.256;9.410;2023-08-01T00:13:12;15.80;99.90
13711;DHT22;6927;51.256;9.410;2023-08-01T00:15:38;15.80;99.90
13711;DHT22;6927;51.256;9.410;2023-08-01T00:18:04;15.80;99.90
13711;DHT22;6927;51.256;9.410;2023-08-01T00:20:30;15.80;99.90
13711;DHT22;6927;51.256;9.410;2023-08-01T00:22:55;15.80;99.90
13711;DHT22;6927;51.256;9.410;2023-08-01T00:25:21;15.80;99.90
13711;DHT22;6927;51.256;9.410;2023-08-01T00:27:47;15.80;99.90
13711;DHT22;6927;51.256;9.410;2023-08-01T00:30:13;15.80;99.90
13711;DHT22;6927;51.256;9.410;2023-08-01T00:32:38;15.80;99.90
13711;DHT22;6927;51.256;9.410;2023-08-01T00:35:04;15.80;99.90
13711;DHT22;6927;51.256;9.410;2023-08-01T00:37:30;15.80;99.90
13711;DHT22;6927;51.256;9.410;2023-08-01T00:39:56;15.80;99.90
13711;DHT22;6927;51.256;9.410;2023-08-01T00:42:22;15.80;99.90
13711;DHT22;6927;51.256;9.410;2023-08-01T00:44:47;15.80;99.90
13711;DHT22;6927;51.256;9.410;2023-08-01T00:47:15;15.80;99.90
13711;DHT22;6927;51.256;9.410;2023-08-01T00:49:40;15.80;99.90
13711;DHT22;6927;51.256;9.410;2023-08-01T00:52:07;15.80;99.90
13711;DHT22;6927;51.256;9.410;2023-08-01T00:54:34;15.90;99.90
13711;DHT22;6927;51.256;9.410;2023-08-01T00:57:03;15.80;99.90
13711;DHT22;6927;51.256;9.410;2023-08-01T00:59:29;15.80;99.90
13711;DHT22;6927;51.256;9.410;2023-08-01T01:01:54;15.90;99.90
13711;DHT22;6927;51.256;9.410;2023-08-01T01:04:20;15.90;99.90
13711;DHT22;6927;51.256;9.410;2023-08-01T01:09:20;15.90;99.90
13711;DHT22;6927;51.256;9.410;2023-08-01T01:11:46;15.90;99.90
13711;DHT22;6927;51.256;9.410;2023-08-01T01:14:12;15.90;99.90
13711;DHT22;6927;51.256;9.410;2023-08-01T01:16:38;15.90;99.90
13711;DHT22;6927;51.256;9.410;2023-08-01T01:19:07;15.90;99.90
13711;DHT22;6927;51.256;9.410;2023-08-01T01:21:35;15.90;99.90
13711;DHT22;6927;51.256;9.410;2023-08-01T01:24:04;16.00;99.90
13711;DHT22;6927;51.256;9.410;2023-08-01T01:26:31;15.90;99.90
13711;DHT22;6927;51.256;9.410;2023-08-01T01:28:57;16.00;99.90
13711;DHT22;6927;51.256;9.410;2023-08-01T01:31:24;16.00;99.90
13711;DHT22;6927;51.256;9.410;2023-08-01T01:33:50;16.00;99.90
13711;DHT22;6927;51.256;9.410;2023-08-01T01:36:15;16.00;99.90
13711;DHT22;6927;51.256;9.410;2023-08-01T01:38:41;16.00;99.90
13711;DHT22;6927;51.256;9.410;2023-08-01T01:41:07;16.00;99.90
13711;DHT22;6927;51.256;9.410;2023-08-01T01:43:32;16.00;99.90
13711;DHT22;6927;51.256;9.410;2023-08-01T01:45:58;16.00;99.90
13711;DHT22;6927;51.256;9.410;2023-08-01T01:48:26;16.00;99.90
13711;DHT22;6927;51.256;9.410;2023-08-01T01:50:51;16.00;99.90
13711;DHT22;6927;51.256;9.410;2023-08-01T01:53:17;16.00;99.90
13711;DHT22;6927;51.256;9.410;2023-08-01T01:55:43;16.10;99.90
13711;DHT22;6927;51.256;9.410;2023-08-01T01:58:08;16.10;99.90
13711;DHT22;6927;51.256;9.410;2023-08-01T02:00:34;16.00;99.90
13711;DHT22;6927;51.256;9.410;2023-08-01T02:02:59;16.10;99.90
13711;DHT22;6927;51.256;9.410;2023-08-01T02:05:28;16.10;99.90
13711;DHT22;6927;51.256;9.410;2023-08-01T02:07:54;16.00;99.90
13711;DHT22;6927;51.256;9.410;2023-08-01T02:10:20;16.00;99.90
13711;DHT22;6927;51.256;9.410;2023-08-01T02:12:45;16.00;99.90
13711;DHT22;6927;51.256;9.410;2023-08-01T02:15:11;16.00;99.90
13711;DHT22;6927;51.256;9.410;2023-08-01T02:17:37;16.00;99.90
13711;DHT22;6927;51.256;9.410;2023-08-01T02:20:04;16.00;99.90
13711;DHT22;6927;51.256;9.410;2023-08-01T02:22:30;16.00;99.90
13711;DHT22;6927;51.256;9.410;2023-08-01T02:24:56;15.90;99.90
13711;DHT22;6927;51.256;9.410;2023-08-01T02:27:21;16.00;99.90
13711;DHT22;6927;51.256;9.410;2023-08-01T02:29:59;16.00;99.90
13711;DHT22;6927;51.256;9.410;2023-08-01T02:32:25;16.00;99.90
13711;DHT22;6927;51.256;9.410;2023-08-01T02:34:50;15.90;99.90
13711;DHT22;6927;51.256;9.410;2023-08-01T02:37:16;15.90;99.90
13711;DHT22;6927;51.256;9.410;2023-08-01T02:39:42;15.80;99.90
13711;DHT22;6927;51.256;9.410;2023-08-01T02:42:07;15.80;99.90
13711;DHT22;6927;51.256;9.410;2023-08-01T02:44:33;15.80;99.90
13711;DHT22;6927;51.256;9.410;2023-08-01T02:46:59;15.80;99.90
13711;DHT22;6927;51.256;9.410;2023-08-01T02:49:25;15.80;99.90
13711;DHT22;6927;51.256;9.410;2023-08-01T02:51:50;15.80;99.90
13711;DHT22;6927;51.256;9.410;2023-08-01T02:54:16;15.80;99.90
13711;DHT22;6927;51.256;9.410;2023-08-01T02:56:41;15.80;99.90
13711;DHT22;6927;51.256;9.410;2023-08-01T02:59:08;15.80;99.90
13711;DHT22;6927;51.256;9.410;2023-08-01T03:01:37;15.80;99.90
13711;DHT22;6927;51.256;9.410;2023-08-01T03:04:04;15.70;99.90
13711;DHT22;6927;51.256;9.410;2023-08-01T03:06:33;15.70;99.90
13711;DHT22;6927;51.256;9.410;2023-08-01T03:08:59;15.70;99.90
13711;DHT22;6927;51.256;9.410;2023-08-01T03:11:26;15.70;99.90
13711;DHT22;6927;51.256;9.410;2023-08-01T03:13:51;15.80;99.90
13711;DHT22;6927;51.256;9.410;2023-08-01T03:16:17;15.80;99.90
13711;DHT22;6927;51.256;9.410;2023-08-01T03:18:43;15.80;99.90
13711;DHT22;6927;51.256;9.410;2023-08-01T03:21:09;15.70;99.90
13711;DHT22;6927;51.256;9.410;2023-08-01T03:23:34;15.70;99.90
13711;DHT22;6927;51.256;9.410;2023-08-01T03:26:00;15.80;99.90
13711;DHT22;6927;51.256;9.410;2023-08-01T03:28:26;15.80;99.90
13711;DHT22;6927;51.256;9.410;2023-08-01T03:30:52;15.80;99.90
13711;DHT22;6927;51.256;9.410;2023-08-01T03:33:19;15.80;99.90
13711;DHT22;6927;51.256;9.410;2023-08-01T03:35:45;15.80;99.90
13711;DHT22;6927;51.256;9.410;2023-08-01T03:38:10;15.80;99.90
13711;DHT22;6927;51.256;9.410;2023-08-01T03:40:36;15.80;99.90
13711;DHT22;6927;51.256;9.410;2023-08-01T03:43:02;15.80;99.90
13711;DHT22;6927;51.256;9.410;2023-08-01T03:45:30;15.80;99.90
13711;DHT22;6927;51.256;9.410;2023-08-01T03:47:55;15.80;99.90
13711;DHT22;6927;51.256;9.410;2023-08-01T03:50:21;15.80;99.90
13711;DHT22;6927;51.256;9.410;2023-08-01T03:52:46;15.80;99.90
13711;DHT22;6927;51.256;9.410;2023-08-01T03:55:12;15.70;99.90
13711;DHT22;6927;51.256;9.410;2023-08-01T03:57:38;15.80;99.90
13711;DHT22;6927;51.256;9.410;2023-08-01T04:00:06;15.80;99.90
13711;DHT22;6927;51.256;9.410;2023-08-01T04:02:31;15.80;99.90
13711;DHT22;6927;51.256;9.410;2023-08-01T04:04:57;15.80;99.90
13711;DHT22;6927;51.256;9.410;2023-08-01T04:07:23;15.80;99.90
13711;DHT22;6927;51.256;9.410;2023-08-01T04:09:48;15.80;99.90
13711;DHT22;6927;51.256;9.410;2023-08-01T04:12:15;15.80;99.90
13711;DHT22;6927;51.256;9.410;2023-08-01T04:14:40;15.80;99.90
13711;DHT22;6927;51.256;9.410;2023-08-01T04:17:06;15.70;99.90
13711;DHT22;6927;51.256;9.410;2023-08-01T04:19:32;15.80;99.90
13711;DHT22;6927;51.256;9.410;2023-08-01T04:21:57;15.80;99.90
13711;DHT22;6927;51.256;9.410;2023-08-01T04:24:23;15.80;99.90
13711;DHT22;6927;51.256;9.410;2023-08-01T04:26:50;15.90;99.90
13711;DHT22;6927;51.256;9.410;2023-08-01T04:29:17;15.80;99.90
13711;DHT22;6927;51.256;9.410;2023-08-01T04:31:43;15.80;99.90
13711;DHT22;6927;51.256;9.410;2023-08-01T04:34:09;15.90;99.90
13711;DHT22;6927;51.256;9.410;2023-08-01T04:36:34;15.80;99.90
13711;DHT22;6927;51.256;9.410;2023-08-01T04:39:00;15.80;99.90
13711;DHT22;6927;51.256;9.410;2023-08-01T04:41:26;15.90;99.90
13711;DHT22;6927;51.256;9.410;2023-08-01T04:43:54;15.90;99.90
13711;DHT22;6927;51.256;9.410;2023-08-01T04:46:19;15.90;99.90
13711;DHT22;6927;51.256;9.410;2023-08-01T04:48:45;15.90;99.90
13711;DHT22;6927;51.256;9.410;2023-08-01T04:51:11;15.90;99.90
13711;DHT22;6927;51.256;9.410;2023-08-01T04:53:36;16.00;99.90
13711;DHT22;6927;51.256;9.410;2023-08-01T04:56:02;16.00;99.90
13711;DHT22;6927;51.256;9.410;2023-08-01T04:58:28;16.00;99.90
13711;DHT22;6927;51.256;9.410;2023-08-01T05:00:53;16.00;99.90
13711;DHT22;6927;51.256;9.410;2023-08-01T05:03:19;16.00;99.90
13711;DHT22;6927;51.256;9.410;2023-08-01T05:05:47;16.10;99.90
13711;DHT22;6927;51.256;9.410;2023-08-01T05:08:12;16.10;99.90
13711;DHT22;6927;51.256;9.410;2023-08-01T05:10:38;16.10;99.90
13711;DHT22;6927;51.256;9.410;2023-08-01T05:13:03;16.10;99.90
13711;DHT22;6927;51.256;9.410;2023-08-01T05:15:29;16.10;99.90
13711;DHT22;6927;51.256;9.410;2023-08-01T05:17:55;16.20;99.90
13711;DHT22;6927;51.256;9.410;2023-08-01T05:20:21;16.20;99.90
13711;DHT22;6927;51.256;9.410;2023-08-01T05:22:47;16.20;99.90
13711;DHT22;6927;51.256;9.410;2023-08-01T05:25:12;16.30;99.90
13711;DHT22;6927;51.256;9.410;2023-08-01T05:27:38;16.30;99.90
13711;DHT22;6927;51.256;9.410;2023-08-01T05:30:04;16.20;99.90
13711;DHT22;6927;51.256;9.410;2023-08-01T05:32:29;16.20;99.90
13711;DHT22;6927;51.256;9.410;2023-08-01T05:34:55;16.20;99.90
13711;DHT22;6927;51.256;9.410;2023-08-01T05:37:20;16.20;99.90
13711;DHT22;6927;51.256;9.410;2023-08-01T05:39:46;16.30;99.90
13711;DHT22;6927;51.256;9.410;2023-08-01T05:42:11;16.30;99.90
13711;DHT22;6927;51.256;9.410;2023-08-01T05:44:37;16.30;99.90
13711;DHT22;6927;51.256;9.410;2023-08-01T05:47:03;16.10;99.90
13711;DHT22;6927;51.256;9.410;2023-08-01T05:49:28;16.00;99.90
13711;DHT22;6927;51.256;9.410;2023-08-01T05:51:55;16.00;99.90
13711;DHT22;6927;51.256;9.410;2023-08-01T05:54:21;16.00;99.90
13711;DHT22;6927;51.256;9.410;2023-08-01T05:56:46;15.80;99.90
13711;DHT22;6927;51.256;9.410;2023-08-01T05:59:12;15.80;99.90
13711;DHT22;6927;51.256;9.410;2023-08-01T06:01:37;15.70;99.90
13711;DHT22;6927;51.256;9.410;2023-08-01T06:04:03;15.70;99.90
13711;DHT22;6927;51.256;9.410;2023-08-01T06:06:29;15.60;99.90
13711;DHT22;6927;51.256;9.410;2023-08-01T06:08:54;15.60;99.90
13711;DHT22;6927;51.256;9.410;2023-08-01T06:11:20;15.60;99.90
13711;DHT22;6927;51.256;9.410;2023-08-01T06:13:45;15.50;99.90
13711;DHT22;6927;51.256;9.410;2023-08-01T06:16:11;15.50;99.90
13711;DHT22;6927;51.256;9.410;2023-08-01T06:18:36;15.50;99.90
13711;DHT22;6927;51.256;9.410;2023-08-01T06:21:02;15.40;99.90
13711;DHT22;6927;51.256;9.410;2023-08-01T06:23:28;15.40;99.90
13711;DHT22;6927;51.256;9.410;2023-08-01T06:25:53;15.40;99.90
13711;DHT22;6927;51.256;9.410;2023-08-01T06:28:19;15.40;99.90
13711;DHT22;6927;51.256;9.410;2023-08-01T06:30:45;15.50;99.90
13711;DHT22;6927;51.256;9.410;2023-08-01T06:33:11;15.50;99.90
13711;DHT22;6927;51.256;9.410;2023-08-01T06:35:36;15.50;99.90
13711;DHT22;6927;51.256;9.410;2023-08-01T06:38:02;15.60;99.90
13711;DHT22;6927;51.256;9.410;2023-08-01T06:40:27;15.60;99.90
13711;DHT22;6927;51.256;9.410;2023-08-01T06:42:53;15.60;99.90
13711;DHT22;6927;51.256;9.410;2023-08-01T06:45:18;15.70;99.90
13711;DHT22;6927;51.256;9.410;2023-08-01T06:47:44;15.70;99.90
13711;DHT22;6927;51.256;9.410;2023-08-01T06:50:10;15.70;99.90
13711;DHT22;6927;51.256;9.410;2023-08-01T06:52:35;15.70;99.90
13711;DHT22;6927;51.256;9.410;2023-08-01T06:55:01;15.80;99.90
13711;DHT22;6927;51.256;9.410;2023-08-01T06:57:27;15.80;99.90
13711;DHT22;6927;51.256;9.410;2023-08-01T06:59:52;15.90;99.90
13711;DHT22;6927;51.256;9.410;2023-08-01T07:02:18;16.00;99.90
13711;DHT22;6927;51.256;9.410;2023-08-01T07:04:44;16.00;99.90
13711;DHT22;6927;51.256;9.410;2023-08-01T07:07:09;16.00;99.90
13711;DHT22;6927;51.256;9.410;2023-08-01T07:09:35;16.10;99.90
13711;DHT22;6927;51.256;9.410;2023-08-01T07:12:00;16.20;99.90
13711;DHT22;6927;51.256;9.410;2023-08-01T07:14:26;16.20;99.90
13711;DHT22;6927;51.256;9.410;2023-08-01T07:16:51;16.20;99.90
13711;DHT22;6927;51.256;9.410;2023-08-01T07:19:17;16.30;99.90
13711;DHT22;6927;51.256;9.410;2023-08-01T07:21:43;16.30;99.90
13711;DHT22;6927;51.256;9.410;2023-08-01T07:24:10;16.40;99.90
13711;DHT22;6927;51.256;9.410;2023-08-01T07:26:36;16.40;99.90
13711;DHT22;6927;51.256;9.410;2023-08-01T07:29:01;16.50;99.90
13711;DHT22;6927;51.256;9.410;2023-08-01T07:31:27;16.50;99.90
13711;DHT22;6927;51.256;9.410;2023-08-01T07:33:52;16.40;99.90
13711;DHT22;6927;51.256;9.410;2023-08-01T07:36:18;16.50;99.90
13711;DHT22;6927;51.256;9.410;2023-08-01T07:38:43;16.60;99.90
13711;DHT22;6927;51.256;9.410;2023-08-01T07:41:09;16.70;99.90
13711;DHT22;6927;51.256;9.410;2023-08-01T07:43:35;16.80;99.90
13711;DHT22;6927;51.256;9.410;2023-08-01T07:46:01;16.80;99.90
13711;DHT22;6927;51.256;9.410;2023-08-01T07:48:26;16.70;99.90
13711;DHT22;6927;51.256;9.410;2023-08-01T07:50:52;16.70;99.90
13711;DHT22;6927;51.256;9.410;2023-08-01T07:53:17;16.70;99.90
13711;DHT22;6927;51.256;9.410;2023-08-01T07:55:43;16.70;99.90
13711;DHT22;6927;51.256;9.410;2023-08-01T07:58:09;16.70;99.90
13711;DHT22;6927;51.256;9.410;2023-08-01T08:00:35;16.90;99.90
13711;DHT22;6927;51.256;9.410;2023-08-01T08:03:01;17.20;99.90
13711;DHT22;6927;51.256;9.410;2023-08-01T08:05:26;17.60;99.90
13711;DHT22;6927;51.256;9.410;2023-08-01T08:07:52;18.20;99.90
13711;DHT22;6927;51.256;9.410;2023-08-01T08:10:17;19.00;99.90
13711;DHT22;6927;51.256;9.410;2023-08-01T08:12:43;19.50;99.90
13711;DHT22;6927;51.256;9.410;2023-08-01T08:15:09;19.50;99.90
13711;DHT22;6927;51.256;9.410;2023-08-01T08:17:35;19.50;99.90
13711;DHT22;6927;51.256;9.410;2023-08-01T08:20:00;19.50;99.90
13711;DHT22;6927;51.256;9.410;2023-08-01T08:22:26;19.80;99.90
13711;DHT22;6927;51.256;9.410;2023-08-01T08:24:51;20.40;99.90
13711;DHT22;6927;51.256;9.410;2023-08-01T08:27:17;20.90;99.90
13711;DHT22;6927;51.256;9.410;2023-08-01T08:29:42;21.10;99.90
13711;DHT22;6927;51.256;9.410;2023-08-01T08:32:08;21.40;99.90
13711;DHT22;6927;51.256;9.410;2023-08-01T08:34:34;21.90;99.90
13711;DHT22;6927;51.256;9.410;2023-08-01T08:36:59;22.00;99.90
13711;DHT22;6927;51.256;9.410;2023-08-01T08:39:25;21.30;99.90
13711;DHT22;6927;51.256;9.410;2023-08-01T08:41:52;20.80;99.90
13711;DHT22;6927;51.256;9.410;2023-08-01T08:44:19;20.30;99.90
13711;DHT22;6927;51.256;9.410;2023-08-01T08:46:51;19.90;99.90
13711;DHT22;6927;51.256;9.410;2023-08-01T08:49:18;19.50;99.90
13711;DHT22;6927;51.256;9.410;2023-08-01T08:51:45;19.20;99.90
13711;DHT22;6927;51.256;9.410;2023-08-01T08:54:13;18.90;99.90
13711;DHT22;6927;51.256;9.410;2023-08-01T08:56:38;18.60;99.90
13711;DHT22;6927;51.256;9.410;2023-08-01T08:59:07;18.40;99.90
13711;DHT22;6927;51.256;9.410;2023-08-01T09:01:32;18.20;99.90
13711;DHT22;6927;51.256;9.410;2023-08-01T09:03:59;18.10;99.90
13711;DHT22;6927;51.256;9.410;2023-08-01T09:06:28;18.00;99.90
13711;DHT22;6927;51.256;9.410;2023-08-01T09:09:10;18.00;99.90
13711;DHT22;6927;51.256;9.410;2023-08-01T09:11:44;18.90;99.90
13711;DHT22;6927;51.256;9.410;2023-08-01T09:14:10;20.60;99.90
13711;DHT22;6927;51.256;9.410;2023-08-01T09:16:36;22.20;99.90
13711;DHT22;6927;51.256;9.410;2023-08-01T09:19:02;22.90;99.90
13711;DHT22;6927;51.256;9.410;2023-08-01T09:21:31;23.90;99.90
13711;DHT22;6927;51.256;9.410;2023-08-01T09:24:10;24.70;99.90
13711;DHT22;6927;51.256;9.410;2023-08-01T09:26:37;25.30;99.90
13711;DHT22;6927;51.256;9.410;2023-08-01T09:29:03;24.80;99.90
13711;DHT22;6927;51.256;9.410;2023-08-01T09:31:33;23.70;99.90
13711;DHT22;6927;51.256;9.410;2023-08-01T09:34:00;22.70;99.90
13711;DHT22;6927;51.256;9.410;2023-08-01T09:36:26;21.90;99.90
13711;DHT22;6927;51.256;9.410;2023-08-01T09:39:00;21.20;99.90
13711;DHT22;6927;51.256;9.410;2023-08-01T09:41:26;22.10;99.90
13711;DHT22;6927;51.256;9.410;2023-08-01T09:43:52;23.90;99.90
13711;DHT22;6927;51.256;9.410;2023-08-01T09:46:17;25.20;99.90
13711;DHT22;6927;51.256;9.410;2023-08-01T09:48:43;25.00;99.90
13711;DHT22;6927;51.256;9.410;2023-08-01T09:51:10;24.20;99.90
13711;DHT22;6927;51.256;9.410;2023-08-01T09:56:18;23.30;99.90
13711;DHT22;6927;51.256;9.410;2023-08-01T09:58:46;23.10;99.90
13711;DHT22;6927;51.256;9.410;2023-08-01T10:01:13;22.30;99.90
13711;DHT22;6927;51.256;9.410;2023-08-01T10:03:44;21.70;99.90
13711;DHT22;6927;51.256;9.410;2023-08-01T10:06:11;21.20;99.90
13711;DHT22;6927;51.256;9.410;2023-08-01T10:08:39;20.80;99.90
13711;DHT22;6927;51.256;9.410;2023-08-01T10:11:05;20.80;99.90
13711;DHT22;6927;51.256;9.410;2023-08-01T10:13:32;21.10;99.90
13711;DHT22;6927;51.256;9.410;2023-08-01T10:15:58;21.80;99.90
13711;DHT22;6927;51.256;9.410;2023-08-01T10:18:24;22.70;99.90
13711;DHT22;6927;51.256;9.410;2023-08-01T10:20:50;23.30;99.90
13711;DHT22;6927;51.256;9.410;2023-08-01T10:23:17;23.00;99.90
13711;DHT22;6927;51.256;9.410;2023-08-01T10:25:43;22.60;99.90
13711;DHT22;6927;51.256;9.410;2023-08-01T10:28:09;21.90;99.90
13711;DHT22;6927;51.256;9.410;2023-08-01T10:30:35;21.50;99.90
13711;DHT22;6927;51.256;9.410;2023-08-01T10:33:00;21.70;99.90
13711;DHT22;6927;51.256;9.410;2023-08-01T10:35:36;22.40;99.90
13711;DHT22;6927;51.256;9.410;2023-08-01T10:38:11;22.20;99.90
13711;DHT22;6927;51.256;9.410;2023-08-01T10:40:39;22.00;99.90
13711;DHT22;6927;51.256;9.410;2023-08-01T10:43:05;22.00;99.90
13711;DHT22;6927;51.256;9.410;2023-08-01T10:45:31;22.10;99.90
13711;DHT22;6927;51.256;9.410;2023-08-01T10:48:10;22.00;99.90
13711;DHT22;6927;51.256;9.410;2023-08-01T10:50:36;22.60;99.90
13711;DHT22;6927;51.256;9.410;2023-08-01T10:53:04;23.10;99.90
13711;DHT22;6927;51.256;9.410;2023-08-01T10:55:42;23.00;99.90
13711;DHT22;6927;51.256;9.410;2023-08-01T10:58:08;22.70;99.90
13711;DHT22;6927;51.256;9.410;2023-08-01T11:00:33;23.00;99.90
13711;DHT22;6927;51.256;9.410;2023-08-01T11:02:59;22.90;99.90
13711;DHT22;6927;51.256;9.410;2023-08-01T11:05:24;22.40;99.90
13711;DHT22;6927;51.256;9.410;2023-08-01T11:08:02;21.90;99.90
13711;DHT22;6927;51.256;9.410;2023-08-01T11:59:17;23.70;99.90
13711;DHT22;6927;51.256;9.410;2023-08-01T12:01:45;23.70;99.90
13711;DHT22;6927;51.256;9.410;2023-08-01T12:04:11;23.80;99.90
13711;DHT22;6927;51.256;9.410;2023-08-01T12:06:37;23.80;99.90
13711;DHT22;6927;51.256;9.410;2023-08-01T12:09:10;23.80;99.90
13711;DHT22;6927;51.256;9.410;2023-08-01T12:12:03;23.60;99.90
13711;DHT22;6927;51.256;9.410;2023-08-01T12:15:38;23.30;99.90
13711;DHT22;6927;51.256;9.410;2023-08-01T12:18:41;22.70;99.90
13711;DHT22;6927;51.256;9.410;2023-08-01T12:21:32;22.30;99.90
13711;DHT22;6927;51.256;9.410;2023-08-01T12:24:20;22.20;99.90
13711;DHT22;6927;51.256;9.410;2023-08-01T12:27:27;22.00;99.90
13711;DHT22;6927;51.256;9.410;2023-08-01T12:29:53;22.00;99.90
13711;DHT22;6927;51.256;9.410;2023-08-01T12:32:40;22.20;99.90
13711;DHT22;6927;51.256;9.410;2023-08-01T12:35:12;22.40;99.90
13711;DHT22;6927;51.256;9.410;2023-08-01T12:37:47;22.50;99.90
13711;DHT22;6927;51.256;9.410;2023-08-01T12:40:36;22.50;99.90
13711;DHT22;6927;51.256;9.410;2023-08-01T12:43:03;22.60;99.90
13711;DHT22;6927;51.256;9.410;2023-08-01T12:45:28;22.50;99.90
13711;DHT22;6927;51.256;9.410;2023-08-01T12:47:54;22.40;99.90
13711;DHT22;6927;51.256;9.410;2023-08-01T12:50:20;22.50;99.90
13711;DHT22;6927;51.256;9.410;2023-08-01T12:52:46;22.70;99.90
13711;DHT22;6927;51.256;9.410;2023-08-01T12:55:14;22.50;99.90
13711;DHT22;6927;51.256;9.410;2023-08-01T12:57:40;22.40;99.90
13711;DHT22;6927;51.256;9.410;2023-08-01T13:00:07;22.40;99.90
13711;DHT22;6927;51.256;9.410;2023-08-01T13:02:36;22.20;99.90
13711;DHT22;6927;51.256;9.410;2023-08-01T13:05:03;22.10;99.90
13711;DHT22;6927;51.256;9.410;2023-08-01T13:07:32;21.90;99.90
13711;DHT22;6927;51.256;9.410;2023-08-01T13:09:58;22.10;99.90
13711;DHT22;6927;51.256;9.410;2023-08-01T13:12:26;22.30;99.90
13711;DHT22;6927;51.256;9.410;2023-08-01T13:14:51;22.20;99.90
13711;DHT22;6927;51.256;9.410;2023-08-01T13:17:17;22.00;99.90
13711;DHT22;6927;51.256;9.410;2023-08-01T13:19:42;22.10;99.90
13711;DHT22;6927;51.256;9.410;2023-08-01T13:22:08;22.10;99.90
13711;DHT22;6927;51.256;9.410;2023-08-01T13:24:33;21.90;99.90
13711;DHT22;6927;51.256;9.410;2023-08-01T13:26:59;21.80;99.90
13711;DHT22;6927;51.256;9.410;2023-08-01T13:29:25;21.60;99.90
13711;DHT22;6927;51.256;9.410;2023-08-01T13:31:50;21.30;99.90
13711;DHT22;6927;51.256;9.410;2023-08-01T13:34:16;21.20;99.90
13711;DHT22;6927;51.256;9.410;2023-08-01T13:36:43;21.00;99.90
13711;DHT22;6927;51.256;9.410;2023-08-01T13:39:08;20.80;99.90
13711;DHT22;6927;51.256;9.410;2023-08-01T13:41:34;20.50;99.90
13711;DHT22;6927;51.256;9.410;2023-08-01T13:44:00;20.10;99.90
13711;DHT22;6927;51.256;9.410;2023-08-01T13:46:26;20.00;99.90
13711;DHT22;6927;51.256;9.410;2023-08-01T13:48:51;20.00;99.90
13711;DHT22;6927;51.256;9.410;2023-08-01T13:51:17;20.00;99.90
13711;DHT22;6927;51.256;9.410;2023-08-01T13:53:42;20.00;99.90
13711;DHT22;6927;51.256;9.410;2023-08-01T13:56:12;20.00;99.90
13711;DHT22;6927;51.256;9.410;2023-08-01T13:58:40;20.00;99.90
13711;DHT22;6927;51.256;9.410;2023-08-01T14:01:08;20.00;99.90
13711;DHT22;6927;51.256;9.410;2023-08-01T14:03:37;20.20;99.90
13711;DHT22;6927;51.256;9.410;2023-08-01T14:06:10;20.40;99.90
13711;DHT22;6927;51.256;9.410;2023-08-01T14:08:40;20.50;99.90
13711;DHT22;6927;51.256;9.410;2023-08-01T14:11:07;20.50;99.90
13711;DHT22;6927;51.256;9.410;2023-08-01T14:13:33;20.50;99.90
13711;DHT22;6927;51.256;9.410;2023-08-01T14:16:00;20.50;99.90
13711;DHT22;6927;51.256;9.410;2023-08-01T14:18:27;20.40;99.90
13711;DHT22;6927;51.256;9.410;2023-08-01T14:20:53;20.00;99.90
13711;DHT22;6927;51.256;9.410;2023-08-01T14:23:19;19.50;99.90
13711;DHT22;6927;51.256;9.410;2023-08-01T14:25:45;19.10;99.90
13711;DHT22;6927;51.256;9.410;2023-08-01T14:28:10;18.80;99.90
13711;DHT22;6927;51.256;9.410;2023-08-01T14:30:37;18.60;99.90
13711;DHT22;6927;51.256;9.410;2023-08-01T14:33:05;18.50;99.90
13711;DHT22;6927;51.256;9.410;2023-08-01T14:35:31;18.60;99.90
13711;DHT22;6927;51.256;9.410;2023-08-01T14:37:57;18.90;99.90
13711;DHT22;6927;51.256;9.410;2023-08-01T14:40:23;19.00;99.90
13711;DHT22;6927;51.256;9.410;2023-08-01T14:42:49;19.00;99.90
13711;DHT22;6927;51.256;9.410;2023-08-01T14:45:15;19.00;99.90
13711;DHT22;6927;51.256;9.410;2023-08-01T14:47:44;19.00;99.90
13711;DHT22;6927;51.256;9.410;2023-08-01T14:50:11;19.20;99.90
13711;DHT22;6927;51.256;9.410;2023-08-01T14:52:37;19.50;99.90
13711;DHT22;6927;51.256;9.410;2023-08-01T14:55:03;19.90;99.90
13711;DHT22;6927;51.256;9.410;2023-08-01T14:59:56;20.20;99.90
13711;DHT22;6927;51.256;9.410;2023-08-01T15:02:22;20.20;99.90
13711;DHT22;6927;51.256;9.410;2023-08-01T15:04:52;20.30;99.90
13711;DHT22;6927;51.256;9.410;2023-08-01T15:07:18;20.40;99.90
13711;DHT22;6927;51.256;9.410;2023-08-01T15:09:44;20.60;99.90
13711;DHT22;6927;51.256;9.410;2023-08-01T15:12:10;20.70;99.90
13711;DHT22;6927;51.256;9.410;2023-08-01T15:14:37;20.70;99.90
13711;DHT22;6927;51.256;9.410;2023-08-01T15:17:03;20.80;99.90
13711;DHT22;6927;51.256;9.410;2023-08-01T15:19:29;20.90;99.90
13711;DHT22;6927;51.256;9.410;2023-08-01T15:21:54;21.00;99.90
13711;DHT22;6927;51.256;9.410;2023-08-01T15:24:20;21.10;99.90
13711;DHT22;6927;51.256;9.410;2023-08-01T15:26:45;21.00;99.90
13711;DHT22;6927;51.256;9.410;2023-08-01T15:29:11;20.90;99.90
13711;DHT22;6927;51.256;9.410;2023-08-01T15:31:36;21.00;99.90
13711;DHT22;6927;51.256;9.410;2023-08-01T15:34:02;21.30;99.90
13711;DHT22;6927;51.256;9.410;2023-08-01T15:36:28;21.40;99.90
13711;DHT22;6927;51.256;9.410;2023-08-01T15:38:55;21.20;99.90
13711;DHT22;6927;51.256;9.410;2023-08-01T15:41:22;20.90;99.90
13711;DHT22;6927;51.256;9.410;2023-08-01T15:43:47;20.60;99.90
13711;DHT22;6927;51.256;9.410;2023-08-01T15:46:13;20.30;99.90
13711;DHT22;6927;51.256;9.410;2023-08-01T15:48:39;20.10;99.90
13711;DHT22;6927;51.256;9.410;2023-08-01T15:51:06;19.90;99.90
13711;DHT22;6927;51.256;9.410;2023-08-01T15:53:32;19.80;99.90
13711;DHT22;6927;51.256;9.410;2023-08-01T15:56:03;19.70;99.90
13711;DHT22;6927;51.256;9.410;2023-08-01T15:58:29;19.80;99.90
13711;DHT22;6927;51.256;9.410;2023-08-01T16:04:29;20.10;99.90
13711;DHT22;6927;51.256;9.410;2023-08-01T16:06:55;20.30;99.90
13711;DHT22;6927;51.256;9.410;2023-08-01T16:09:20;20.40;99.90
13711;DHT22;6927;51.256;9.410;2023-08-01T16:11:46;20.40;99.90
13711;DHT22;6927;51.256;9.410;2023-08-01T16:14:11;20.50;99.90
13711;DHT22;6927;51.256;9.410;2023-08-01T16:16:37;20.70;99.90
13711;DHT22;6927;51.256;9.410;2023-08-01T16:19:20;20.80;99.90
13711;DHT22;6927;51.256;9.410;2023-08-01T16:22:10;20.80;99.90
13711;DHT22;6927;51.256;9.410;2023-08-01T16:25:01;21.00;99.90
13711;DHT22;6927;51.256;9.410;2023-08-01T16:27:27;20.90;99.90
13711;DHT22;6927;51.256;9.410;2023-08-01T16:29:52;20.90;99.90
13711;DHT22;6927;51.256;9.410;2023-08-01T16:32:18;20.80;99.90
13711;DHT22;6927;51.256;9.410;2023-08-01T16:34:44;20.50;99.90
13711;DHT22;6927;51.256;9.410;2023-08-01T16:37:09;20.20;99.90
13711;DHT22;6927;51.256;9.410;2023-08-01T16:39:35;20.00;99.90
13711;DHT22;6927;51.256;9.410;2023-08-01T16:42:00;19.80;99.90
13711;DHT22;6927;51.256;9.410;2023-08-01T16:44:26;19.70;99.90